createdAt,value
2023-04-14T00:00:36.748Z,36.71
2023-04-14T00:03:05.137Z,36.34
2023-04-14T00:05:33.290Z,36.52
2023-04-14T00:08:01.934Z,36.47
2023-04-14T00:10:30.144Z,36.43
2023-04-14T00:12:58.101Z,36.76
2023-04-14T00:15:27.510Z,36.57
2023-04-14T00:17:55.396Z,36.55
2023-04-14T00:20:23.751Z,36.69
2023-04-14T00:22:51.825Z,36.52
2023-04-14T00:25:19.898Z,36.66
2023-04-14T00:27:47.852Z,36.59
2023-04-14T00:30:16.235Z,36.51
2023-04-14T00:32:46.033Z,36.60
2023-04-14T00:35:13.996Z,36.70
2023-04-14T00:37:41.918Z,36.63
2023-04-14T00:40:10.994Z,36.76
2023-04-14T00:42:44.136Z,36.72
2023-04-14T00:45:12.467Z,36.23
2023-04-14T00:47:40.716Z,36.71
2023-04-14T00:50:12.101Z,36.76
2023-04-14T00:52:39.991Z,36.40
2023-04-14T00:55:09.226Z,36.47
2023-04-14T00:57:37.120Z,36.38
2023-04-14T01:00:05.986Z,36.48
2023-04-14T01:02:34.117Z,36.47
2023-04-14T01:05:02.242Z,36.71
2023-04-14T01:07:31.797Z,36.56
2023-04-14T01:10:00.984Z,36.51
2023-04-14T01:12:36.538Z,36.56
2023-04-14T01:15:10.431Z,36.51
2023-04-14T01:17:40.682Z,36.14
2023-04-14T01:20:11.397Z,36.53
2023-04-14T01:22:49.032Z,36.37
2023-04-14T01:25:36.481Z,36.62
2023-04-14T01:28:14.833Z,36.26
2023-04-14T01:30:52.422Z,36.33
2023-04-14T01:33:22.273Z,36.46
2023-04-14T01:35:52.759Z,36.67
2023-04-14T01:38:23.178Z,36.58
2023-04-14T01:40:52.331Z,36.48
2023-04-14T01:43:22.531Z,36.31
2023-04-14T01:45:52.539Z,36.62
2023-04-14T01:48:21.795Z,36.21
2023-04-14T01:50:50.008Z,36.62
2023-04-14T01:53:18.414Z,36.06
2023-04-14T01:55:47.361Z,36.59
2023-04-14T01:58:15.565Z,36.45
2023-04-14T02:00:43.745Z,36.52
2023-04-14T02:03:12.003Z,36.47
2023-04-14T02:05:41.658Z,36.12
2023-04-14T02:08:11.644Z,36.38
2023-04-14T02:10:41.652Z,36.27
2023-04-14T02:13:10.514Z,36.39
2023-04-14T02:15:38.420Z,36.43
2023-04-14T02:18:07.411Z,35.98
2023-04-14T02:20:35.580Z,36.25
2023-04-14T02:23:04.882Z,36.53
2023-04-14T02:25:34.241Z,36.34
2023-04-14T02:28:03.842Z,36.48
2023-04-14T02:30:33.020Z,36.14
2023-04-14T02:33:03.097Z,36.11
2023-04-14T02:35:31.878Z,36.54
2023-04-14T02:38:04.073Z,36.09
2023-04-14T02:40:33.647Z,36.09
2023-04-14T02:43:02.448Z,36.33
2023-04-14T02:45:32.981Z,36.09
2023-04-14T02:48:03.849Z,36.04
2023-04-14T02:50:32.086Z,36.33
2023-04-14T02:53:00.032Z,36.36
2023-04-14T02:55:28.010Z,36.07
2023-04-14T02:57:57.359Z,36.32
2023-04-14T03:00:25.836Z,36.43
2023-04-14T03:02:54.123Z,36.25
2023-04-14T03:05:22.403Z,36.13
2023-04-14T03:07:50.411Z,36.32
2023-04-14T03:10:18.632Z,36.42
2023-04-14T03:12:46.814Z,36.35
2023-04-14T03:15:16.826Z,36.09
2023-04-14T03:17:45.230Z,36.52
2023-04-14T03:20:13.725Z,36.43
2023-04-14T03:22:41.935Z,36.36
2023-04-14T03:25:12.458Z,36.29
2023-04-14T03:27:40.493Z,36.35
2023-04-14T03:30:11.374Z,36.34
2023-04-14T03:32:42.320Z,36.31
2023-04-14T03:35:12.731Z,36.29
2023-04-14T03:37:41.405Z,36.25
2023-04-14T03:40:11.242Z,36.17
2023-04-14T03:42:39.909Z,36.01
2023-04-14T03:45:10.805Z,36.05
2023-04-14T03:47:40.185Z,36.03
2023-04-14T03:50:10.340Z,35.97
2023-04-14T03:52:39.347Z,36.11
2023-04-14T03:55:08.002Z,35.97
2023-04-14T03:57:35.959Z,36.05
2023-04-14T04:00:05.244Z,35.84
2023-04-14T04:02:33.398Z,35.97
2023-04-14T04:05:02.781Z,35.72
2023-04-14T04:07:30.833Z,35.97
2023-04-14T04:09:59.033Z,35.59
2023-04-14T04:12:26.915Z,36.23
2023-04-14T04:14:54.804Z,35.86
2023-04-14T04:17:24.373Z,35.64
2023-04-14T04:19:52.728Z,35.79
2023-04-14T04:22:22.212Z,36.09
2023-04-14T04:24:50.142Z,35.79
2023-04-14T04:27:27.717Z,35.73
2023-04-14T04:29:56.796Z,35.70
2023-04-14T04:32:25.173Z,36.00
2023-04-14T04:34:53.228Z,36.17
2023-04-14T04:37:22.649Z,36.11
2023-04-14T04:39:50.893Z,35.98
2023-04-14T04:42:18.855Z,36.03
2023-04-14T04:44:46.737Z,36.14
2023-04-14T04:47:14.676Z,35.80
2023-04-14T04:49:42.548Z,36.03
2023-04-14T04:52:10.736Z,36.00
2023-04-14T04:54:40.063Z,35.91
2023-04-14T04:57:08.001Z,36.04
2023-04-14T04:59:37.394Z,35.69
2023-04-14T05:02:06.431Z,35.75
2023-04-14T05:04:34.470Z,35.68
2023-04-14T05:07:03.347Z,35.84
2023-04-14T05:09:31.261Z,36.02
2023-04-14T05:12:00.860Z,35.45
2023-04-14T05:14:28.846Z,35.85
2023-04-14T05:16:57.041Z,35.98
2023-04-14T05:19:24.979Z,35.91
2023-04-14T05:21:53.227Z,35.66
2023-04-14T05:24:21.320Z,35.44
2023-04-14T05:27:09.534Z,35.55
2023-04-14T05:29:39.844Z,35.54
2023-04-14T05:32:08.032Z,35.73
2023-04-14T05:34:35.915Z,35.55
2023-04-14T05:37:03.847Z,35.66
2023-04-14T05:39:31.718Z,35.94
2023-04-14T05:42:01.239Z,35.63
2023-04-14T05:44:29.164Z,35.66
2023-04-14T05:46:58.470Z,35.51
2023-04-14T05:49:26.432Z,35.43
2023-04-14T05:51:56.136Z,35.51
2023-04-14T05:54:24.061Z,35.60
2023-04-14T05:56:51.983Z,35.67
2023-04-14T05:59:19.883Z,35.62
2023-04-14T06:01:48.138Z,35.67
2023-04-14T06:04:17.727Z,35.62
2023-04-14T06:06:45.785Z,35.25
2023-04-14T06:09:13.723Z,35.36
2023-04-14T06:11:41.915Z,35.67
2023-04-14T06:14:09.993Z,35.74
2023-04-14T06:16:37.930Z,35.41
2023-04-14T06:19:05.930Z,35.46
2023-04-14T06:21:35.584Z,35.54
2023-04-14T06:24:03.452Z,35.40
2023-04-14T06:26:31.360Z,35.50
2023-04-14T06:29:00.720Z,35.48
2023-04-14T06:31:29.302Z,35.73
2023-04-14T06:33:57.245Z,35.44
2023-04-14T06:36:26.073Z,35.62
2023-04-14T06:38:55.362Z,35.66
2023-04-14T06:41:23.588Z,35.55
2023-04-14T06:43:51.542Z,35.19
2023-04-14T06:46:19.511Z,35.20
2023-04-14T06:48:47.494Z,35.27
2023-04-14T06:51:15.968Z,35.68
2023-04-14T06:53:43.865Z,35.51
2023-04-14T06:56:13.197Z,35.55
2023-04-14T06:58:41.245Z,35.37
2023-04-14T07:01:09.186Z,35.54
2023-04-14T07:03:37.646Z,35.71
2023-04-14T07:06:06.861Z,35.26
2023-04-14T07:08:35.424Z,35.48
2023-04-14T07:11:04.246Z,35.32
2023-04-14T07:13:33.764Z,35.25
2023-04-14T07:16:02.196Z,35.44
2023-04-14T07:18:30.234Z,35.55
2023-04-14T07:20:58.573Z,35.63
2023-04-14T07:23:26.726Z,35.40
2023-04-14T07:25:55.021Z,35.44
2023-04-14T07:28:23.273Z,35.43
2023-04-14T07:30:53.160Z,35.34
2023-04-14T07:33:22.372Z,35.51
2023-04-14T07:36:01.397Z,35.73
2023-04-14T07:38:31.161Z,35.45
2023-04-14T07:40:59.065Z,35.40
2023-04-14T07:43:27.319Z,35.50
2023-04-14T07:45:56.939Z,35.18
2023-04-14T07:48:24.844Z,35.49
2023-04-14T07:50:53.110Z,35.39
2023-04-14T07:53:21.073Z,35.73
2023-04-14T07:55:49.150Z,35.36
2023-04-14T07:58:17.118Z,35.47
2023-04-14T08:00:45.530Z,35.59
2023-04-14T08:03:14.918Z,35.32
2023-04-14T08:05:43.865Z,35.39
2023-04-14T08:08:12.403Z,35.30
2023-04-14T08:10:41.547Z,35.33
2023-04-14T08:13:09.458Z,35.30
2023-04-14T08:15:37.416Z,35.73
2023-04-14T08:18:06.005Z,35.29
2023-04-14T08:20:35.644Z,35.37
2023-04-14T08:23:03.642Z,35.42
2023-04-14T08:25:31.597Z,35.41
2023-04-14T08:27:59.480Z,35.29
2023-04-14T08:30:27.760Z,35.52
2023-04-14T08:32:56.878Z,35.54
2023-04-14T08:35:39.002Z,35.62
2023-04-14T08:38:11.315Z,35.20
2023-04-14T08:40:40.301Z,35.48
2023-04-14T08:43:08.194Z,35.60
2023-04-14T08:45:36.531Z,35.31
2023-04-14T08:48:05.103Z,35.50
2023-04-14T08:50:34.716Z,35.37
2023-04-14T08:53:04.049Z,35.40
2023-04-14T08:55:33.481Z,35.47
2023-04-14T08:58:02.450Z,35.64
2023-04-14T09:00:31.088Z,35.30
2023-04-14T09:02:59.153Z,35.44
2023-04-14T09:05:27.234Z,35.32
2023-04-14T09:07:55.463Z,35.31
2023-04-14T09:10:23.876Z,35.36
2023-04-14T09:12:53.556Z,35.31
2023-04-14T09:15:21.763Z,35.57
2023-04-14T09:17:49.897Z,35.44
2023-04-14T09:20:34.487Z,35.58
2023-04-14T09:23:06.090Z,35.53
2023-04-14T09:25:34.854Z,35.43
2023-04-14T09:28:04.162Z,35.70
2023-04-14T09:30:32.604Z,35.72
2023-04-14T09:33:00.895Z,35.52
2023-04-14T09:35:44.215Z,35.38
2023-04-14T09:38:12.207Z,35.55
2023-04-14T09:40:40.416Z,35.23
2023-04-14T09:43:10.664Z,35.19
2023-04-14T09:45:43.274Z,35.45
2023-04-14T09:48:13.007Z,35.43
2023-04-14T09:51:00.550Z,35.37
2023-04-14T09:53:29.735Z,35.41
2023-04-14T09:55:57.736Z,35.20
2023-04-14T09:58:29.967Z,35.41
2023-04-14T10:00:59.471Z,35.69
2023-04-14T10:03:40.508Z,35.35
2023-04-14T10:06:09.696Z,35.23
2023-04-14T10:08:41.158Z,35.17
2023-04-14T10:11:16.863Z,35.48
2023-04-14T10:13:46.350Z,35.11
2023-04-14T10:16:14.583Z,35.52
2023-04-14T10:18:42.638Z,35.30
2023-04-14T10:21:10.885Z,35.24
2023-04-14T10:23:39.438Z,35.60
2023-04-14T10:26:07.507Z,35.40
2023-04-14T10:28:36.079Z,35.41
2023-04-14T10:31:07.142Z,35.30
2023-04-14T10:33:37.971Z,35.75
2023-04-14T10:36:06.155Z,35.32
2023-04-14T10:38:43.979Z,35.63
2023-04-14T10:41:12.503Z,35.47
2023-04-14T10:43:40.669Z,35.74
2023-04-14T10:46:11.316Z,35.72
2023-04-14T10:48:40.300Z,35.18
2023-04-14T10:51:09.705Z,35.39
2023-04-14T10:53:39.078Z,35.32
2023-04-14T10:56:07.144Z,35.22
2023-04-14T10:58:35.890Z,35.60
2023-04-14T11:01:24.119Z,35.38
2023-04-14T11:03:52.303Z,35.41
2023-04-14T11:06:52.340Z,35.16
2023-04-14T11:09:27.407Z,35.24
2023-04-14T11:11:56.543Z,35.58
2023-04-14T11:14:28.348Z,35.44
2023-04-14T11:17:04.277Z,35.40
2023-04-14T11:19:32.768Z,35.22
2023-04-14T11:22:00.928Z,35.65
2023-04-14T11:24:28.854Z,35.62
2023-04-14T11:26:56.934Z,35.47
2023-04-14T11:29:24.814Z,35.48
2023-04-14T11:32:05.609Z,35.52
2023-04-14T11:34:34.333Z,35.38
2023-04-14T11:37:05.912Z,35.23
2023-04-14T11:39:35.584Z,35.61
2023-04-14T11:42:04.346Z,35.27
2023-04-14T11:44:32.334Z,35.32
2023-04-14T11:47:00.251Z,35.39
2023-04-14T11:49:36.094Z,35.34
2023-04-14T11:52:10.047Z,35.65
2023-04-14T11:54:39.020Z,35.37
2023-04-14T11:57:11.233Z,35.39
2023-04-14T11:59:43.536Z,35.46
2023-04-14T12:02:16.562Z,35.62
2023-04-14T12:04:46.810Z,35.59
2023-04-14T12:07:17.000Z,35.17
2023-04-14T12:09:46.773Z,35.14
2023-04-14T12:15:03.045Z,35.69
2023-04-14T12:17:31.356Z,35.74
2023-04-14T12:20:00.971Z,35.10
2023-04-14T12:22:29.760Z,35.38
2023-04-14T12:24:58.040Z,35.23
2023-04-14T12:27:26.610Z,35.28
2023-04-14T12:29:54.904Z,35.32
2023-04-14T12:32:23.213Z,35.40
2023-04-14T12:34:55.543Z,35.27
2023-04-14T12:37:27.439Z,35.73
2023-04-14T12:39:58.193Z,35.52
2023-04-14T12:42:26.155Z,35.39
2023-04-14T12:44:58.188Z,35.27
2023-04-14T12:47:29.975Z,35.38
2023-04-14T12:49:58.575Z,35.66
2023-04-14T12:52:38.266Z,35.41
2023-04-14T12:55:07.275Z,35.39
2023-04-14T12:57:35.290Z,35.31
2023-04-14T13:00:05.025Z,35.21
2023-04-14T13:02:33.515Z,35.45
2023-04-14T13:05:01.534Z,35.55
2023-04-14T13:07:29.745Z,35.45
2023-04-14T13:09:59.057Z,35.04
2023-04-14T13:12:27.139Z,35.45
2023-04-14T13:14:55.089Z,35.39
2023-04-14T13:17:23.154Z,35.50
2023-04-14T13:19:52.923Z,35.50
2023-04-14T13:22:20.912Z,35.26
2023-04-14T13:24:49.940Z,35.28
2023-04-14T13:27:19.571Z,35.41
2023-04-14T13:29:47.769Z,35.32
2023-04-14T13:32:15.791Z,35.44
2023-04-14T13:34:44.189Z,35.49
2023-04-14T13:37:12.080Z,35.39
2023-04-14T13:39:40.133Z,35.45
2023-04-14T13:42:08.344Z,35.17
2023-04-14T13:44:37.790Z,35.39
2023-04-14T13:47:05.822Z,35.18
2023-04-14T13:49:33.687Z,35.46
2023-04-14T13:52:01.856Z,35.21
2023-04-14T13:54:29.784Z,35.40
2023-04-14T13:56:57.782Z,35.19
2023-04-14T13:59:25.799Z,35.57
2023-04-14T14:01:55.528Z,35.38
2023-04-14T14:04:24.032Z,35.72
2023-04-14T14:06:52.130Z,35.64
2023-04-14T14:09:20.095Z,35.56
2023-04-14T14:11:48.316Z,35.35
2023-04-14T14:14:16.195Z,35.30
2023-04-14T14:16:44.170Z,35.74
2023-04-14T14:19:17.133Z,35.17
2023-04-14T14:21:45.680Z,35.31
2023-04-14T14:24:14.059Z,35.46
2023-04-14T14:26:41.949Z,35.45
2023-04-14T14:29:09.854Z,35.59
2023-04-14T14:31:38.239Z,35.55
2023-04-14T14:34:06.176Z,35.75
2023-04-14T14:36:35.485Z,35.26
2023-04-14T14:39:03.409Z,35.48
2023-04-14T14:41:31.596Z,35.45
2023-04-14T14:44:00.848Z,35.69
2023-04-14T14:46:29.691Z,35.55
2023-04-14T14:48:57.918Z,35.50
2023-04-14T14:51:27.689Z,35.61
2023-04-14T14:54:08.842Z,35.36
2023-04-14T14:56:37.926Z,35.72
2023-04-14T14:59:05.834Z,35.45
2023-04-14T15:01:34.118Z,35.51
2023-04-14T15:04:02.593Z,35.44
2023-04-14T15:06:31.022Z,35.41
2023-04-14T15:09:00.469Z,35.50
2023-04-14T15:11:29.585Z,35.59
2023-04-14T15:13:58.466Z,35.30
2023-04-14T15:16:26.463Z,35.46
2023-04-14T15:18:54.421Z,35.34
2023-04-14T15:21:22.338Z,35.23
2023-04-14T15:23:50.270Z,35.29
2023-04-14T15:26:19.836Z,35.26
2023-04-14T15:28:48.135Z,35.54
2023-04-14T15:31:16.524Z,35.08
2023-04-14T15:33:45.594Z,35.23
2023-04-14T15:36:13.488Z,35.45
2023-04-14T15:38:42.353Z,35.34
2023-04-14T15:41:10.554Z,35.45
2023-04-14T15:43:39.923Z,35.60
2023-04-14T15:46:07.907Z,35.29
2023-04-14T15:48:36.185Z,35.41
2023-04-14T15:51:04.956Z,35.43
2023-04-14T15:53:32.972Z,35.48
2023-04-14T15:56:01.102Z,35.50
2023-04-14T15:58:29.086Z,35.25
2023-04-14T16:00:58.792Z,35.48
2023-04-14T16:03:27.046Z,35.23
2023-04-14T16:06:02.401Z,35.62
2023-04-14T16:08:30.749Z,35.30
2023-04-14T16:10:58.678Z,35.24
2023-04-14T16:13:27.405Z,35.51
2023-04-14T16:15:55.445Z,35.57
2023-04-14T16:18:24.740Z,35.78
2023-04-14T16:20:53.449Z,35.64
2023-04-14T16:23:22.022Z,35.63
2023-04-14T16:25:50.565Z,35.58
2023-04-14T16:28:18.628Z,35.37
2023-04-14T16:30:46.852Z,35.72
2023-04-14T16:33:14.763Z,35.36
2023-04-14T16:35:44.049Z,35.72
2023-04-14T16:38:12.271Z,35.71
2023-04-14T16:40:40.586Z,35.46
2023-04-14T16:43:09.559Z,35.81
2023-04-14T16:45:37.562Z,35.57
2023-04-14T16:48:05.902Z,35.31
2023-04-14T16:50:35.039Z,35.41
2023-04-14T16:53:04.940Z,35.55
2023-04-14T16:55:33.697Z,35.60
2023-04-14T16:58:01.729Z,35.57
2023-04-14T17:00:30.543Z,35.37
2023-04-14T17:02:58.580Z,35.50
2023-04-14T17:05:27.222Z,35.36
2023-04-14T17:07:55.186Z,35.56
2023-04-14T17:10:26.305Z,35.74
2023-04-14T17:12:54.410Z,35.75
2023-04-14T17:15:22.558Z,35.62
2023-04-14T17:17:50.486Z,35.74
2023-04-14T17:20:19.107Z,35.43
2023-04-14T17:22:47.097Z,35.72
2023-04-14T17:25:15.570Z,35.52
2023-04-14T17:27:45.704Z,35.43
2023-04-14T17:30:14.582Z,35.40
2023-04-14T17:32:42.819Z,35.51
2023-04-14T17:35:11.438Z,35.50
2023-04-14T17:37:39.361Z,35.75
2023-04-14T17:40:10.093Z,35.57
2023-04-14T17:42:38.737Z,35.68
2023-04-14T17:45:10.123Z,35.31
2023-04-14T17:47:39.976Z,35.44
2023-04-14T17:50:10.171Z,35.51
2023-04-14T17:52:38.116Z,35.60
2023-04-14T17:55:08.815Z,35.32
2023-04-14T17:57:36.730Z,35.17
2023-04-14T18:00:05.966Z,35.16
2023-04-14T18:02:38.424Z,35.51
2023-04-14T18:05:07.197Z,35.75
2023-04-14T18:07:36.330Z,35.27
2023-04-14T18:10:04.753Z,35.26
2023-04-14T18:12:33.321Z,35.70
2023-04-14T18:15:01.867Z,35.83
2023-04-14T18:17:30.173Z,35.47
2023-04-14T18:19:59.639Z,35.39
2023-04-14T18:22:27.558Z,35.51
2023-04-14T18:24:55.575Z,35.33
2023-04-14T18:29:54.662Z,35.66
2023-04-14T18:32:25.291Z,35.68
2023-04-14T18:34:53.369Z,35.51
2023-04-14T18:37:22.942Z,35.51
2023-04-14T18:39:51.154Z,35.73
2023-04-14T18:42:19.102Z,35.50
2023-04-14T18:44:46.961Z,35.29
2023-04-14T18:47:15.891Z,35.57
2023-04-14T18:49:44.122Z,35.51
2023-04-14T18:52:12.066Z,35.59
2023-04-14T18:54:41.361Z,35.52
2023-04-14T18:57:09.429Z,35.46
2023-04-14T18:59:37.355Z,35.65
2023-04-14T19:02:06.518Z,35.64
2023-04-14T19:04:34.618Z,35.47
2023-04-14T19:07:02.656Z,35.51
2023-04-14T19:09:30.621Z,35.32
2023-04-14T19:12:00.183Z,35.25
2023-04-14T19:14:28.385Z,35.54
2023-04-14T19:16:56.352Z,35.57
2023-04-14T19:19:24.859Z,35.65
2023-04-14T19:21:53.125Z,35.56
2023-04-14T19:24:21.112Z,35.30
2023-04-14T19:26:49.033Z,35.54
2023-04-14T19:29:18.338Z,35.38
2023-04-14T19:31:46.718Z,35.27
2023-04-14T19:34:14.653Z,35.50
2023-04-14T19:36:43.605Z,35.70
2023-04-14T19:39:11.501Z,35.47
2023-04-14T19:41:39.806Z,35.43
2023-04-14T19:44:08.453Z,35.52
2023-04-14T19:46:38.072Z,35.38
2023-04-14T19:49:07.252Z,35.40
2023-04-14T19:51:35.424Z,35.11
2023-04-14T19:54:05.293Z,35.72
2023-04-14T19:56:33.250Z,35.45
2023-04-14T19:59:01.310Z,35.61
2023-04-14T20:01:30.016Z,35.64
2023-04-14T20:04:05.671Z,35.59
2023-04-14T20:06:40.223Z,35.29
2023-04-14T20:09:08.182Z,35.17
2023-04-14T20:11:36.073Z,35.46
2023-04-14T20:14:04.040Z,35.63
2023-04-14T20:16:32.651Z,35.63
2023-04-14T20:19:02.309Z,35.29
2023-04-14T20:21:30.737Z,35.60
2023-04-14T20:23:59.358Z,35.48
2023-04-14T20:26:27.495Z,35.66
2023-04-14T20:28:56.086Z,35.43
2023-04-14T20:31:25.540Z,35.55
2023-04-14T20:33:53.556Z,35.77
2023-04-14T20:36:23.454Z,35.37
2023-04-14T20:38:51.615Z,35.63
2023-04-14T20:41:19.503Z,35.22
2023-04-14T20:43:47.462Z,35.25
2023-04-14T20:46:15.679Z,35.25
2023-04-14T20:48:43.705Z,35.47
2023-04-14T20:51:12.232Z,35.59
2023-04-14T20:53:41.493Z,35.67
2023-04-14T20:56:09.384Z,35.56
2023-04-14T20:58:38.278Z,35.66
2023-04-14T21:01:06.619Z,35.38
2023-04-14T21:03:34.889Z,35.19
2023-04-14T21:06:02.989Z,35.46
2023-04-14T21:08:30.898Z,35.41
2023-04-14T21:11:14.325Z,35.45
2023-04-14T21:15:31.078Z,35.19
2023-04-14T21:16:32.334Z,35.56
2023-04-14T21:19:02.280Z,35.42
2023-04-14T21:21:31.683Z,35.40
2023-04-14T21:23:59.716Z,35.39
2023-04-14T21:26:29.439Z,35.54
2023-04-14T21:28:57.701Z,35.34
2023-04-14T21:31:25.890Z,35.31
2023-04-14T21:33:53.905Z,35.90
2023-04-14T21:36:21.833Z,35.62
2023-04-14T21:38:49.794Z,35.52
2023-04-14T21:41:17.700Z,35.62
2023-04-14T21:43:48.408Z,35.33
2023-04-14T21:46:16.346Z,35.33
2023-04-14T21:48:44.318Z,35.55
2023-04-14T21:51:12.761Z,35.63
2023-04-14T21:53:40.742Z,35.69
2023-04-14T21:56:11.026Z,35.47
2023-04-14T21:58:40.200Z,35.52
2023-04-14T22:01:10.722Z,35.61
2023-04-14T22:03:41.316Z,35.64
2023-04-14T22:06:11.242Z,35.52
2023-04-14T22:08:39.534Z,35.84
2023-04-14T22:11:07.929Z,35.65
2023-04-14T22:13:35.891Z,35.24
2023-04-14T22:16:03.801Z,35.51
2023-04-14T22:18:33.105Z,35.41
2023-04-14T22:21:01.550Z,35.35
2023-04-14T22:23:29.431Z,35.36
2023-04-14T22:25:57.436Z,35.17
2023-04-14T22:28:25.355Z,35.59
2023-04-14T22:30:53.558Z,35.45
2023-04-14T22:33:21.541Z,35.29
2023-04-14T22:35:50.821Z,35.40
2023-04-14T22:38:18.698Z,35.37
2023-04-14T22:40:46.954Z,35.29
2023-04-14T22:43:15.496Z,35.25
2023-04-14T22:45:43.429Z,35.28
2023-04-14T22:48:11.600Z,35.58
2023-04-14T22:50:39.932Z,35.19
2023-04-14T22:53:09.334Z,35.40
2023-04-14T22:55:37.349Z,35.51
2023-04-14T22:58:05.298Z,35.27
2023-04-14T23:00:33.517Z,35.42
2023-04-14T23:03:01.673Z,35.37
2023-04-14T23:05:30.180Z,35.54
2023-04-14T23:07:58.096Z,35.13
2023-04-14T23:10:27.746Z,35.64
2023-04-14T23:12:55.648Z,35.17
2023-04-14T23:15:23.550Z,35.04
2023-04-14T23:17:51.668Z,35.58
2023-04-14T23:20:19.674Z,35.50
2023-04-14T23:22:47.748Z,35.41
2023-04-14T23:25:15.751Z,35.02
2023-04-14T23:27:45.051Z,35.08
2023-04-14T23:30:13.362Z,35.12
2023-04-14T23:32:41.290Z,35.24
2023-04-14T23:35:10.331Z,35.53
2023-04-14T23:37:38.896Z,35.31
2023-04-14T23:40:08.383Z,35.43
2023-04-14T23:42:36.449Z,35.26
2023-04-14T23:45:09.391Z,35.41
2023-04-14T23:47:37.603Z,35.48
2023-04-14T23:50:06.513Z,35.37
2023-04-14T23:52:35.901Z,35.19
2023-04-14T23:55:03.866Z,34.99
2023-04-14T23:57:31.751Z,35.32
